Airfield :
LOGIN :

Register | Disclaimer

   EN    FR    IT 

 










Legend :    VFR   Marginal VFR   IFR   Intensive IFR   Very Intensive IFR
Visi :
Ceiling :
>= 8 km
>= 3000ft
5 to 8 km
1000 to 3000 ft
1500m to 5 km
500 to 1000 ft
800 to 1500m
200 to 500 ft
< 800m
< 200 ft
Symbols :   Thunderstorms  Fog  Heavy snow  Heavy precipitations  Wind > 20 kt
SIGMETs :     Misc.  Thunderstorms  Icing  Turbulence  Mountain Waves  Volcanic Ashes






- Airport Elevation : 1475 ft


LSZC - Buochs Stans

CURRENT METAR :
  • 250720Z VRB01KT CAVOK 20/15 Q1013

EXPIRED METARs :
  • 250650Z VRB02KT CAVOK 20/15 Q1014
  • 250620Z VRB01KT CAVOK 18/15 Q1013
  • 250550Z AUTO 22004KT 190V250 CAVOK 17/14 Q1014
  • 250520Z AUTO 24003KT CAVOK 17/14 Q1013
  • 250450Z AUTO VRB02KT CAVOK 16/14 Q1014
  • 250420Z AUTO 25003KT CAVOK 15/14 Q1013
  • 250350Z AUTO 22003KT CAVOK 15/14 Q1013
  • 250320Z AUTO VRB03KT CAVOK 16/14 Q1013
  • 250250Z AUTO VRB03KT CAVOK 16/14 Q1013

TAF TAF LSZC
Valid from the 25 at 06:00 until the 25 at 15:00 UTC


250525Z 2506/2515 VRB02KT CAVOK
BECMG 2507/2510 9999 FEW040
PROB40
TEMPO 2511/2515 SHRA FEW050TCU
PROB30
TEMPO 2513/2515 08015G27KT 4000 TSRA FEW050CB



MET'MAP, your aeronautical weather chart ! - Copyright ORBIFLY December 2007 - Disclaimer

ORBIFLY MET'MAP TEAM :

Programming & Development : Alexandra Zaïnal
Original concept : Baudouin d'Aumeries
Technical & hardware support : Manuel Goepfert
Assistance : Marc-Olivier Méhu




SOURCES & CREDITS :

   NOAA